sensor_id;sensor_type;location;lat;lon;timestamp;pressure;altitude;pressure_sealevel;temperature;humidity
50057;BME280;36875;49.468;11.200;2023-04-12T00:02:10;97512.38;;;19.10;39.91
50057;BME280;36875;49.468;11.200;2023-04-12T00:04:35;97512.69;;;19.09;39.93
50057;BME280;36875;49.468;11.200;2023-04-12T00:07:02;97508.34;;;19.07;39.81
50057;BME280;36875;49.468;11.200;2023-04-12T00:09:28;97499.66;;;19.05;39.70
50057;BME280;36875;49.468;11.200;2023-04-12T00:11:55;97504.31;;;19.05;40.17
50057;BME280;36875;49.468;11.200;2023-04-12T00:14:21;97501.59;;;19.05;40.09
50057;BME280;36875;49.468;11.200;2023-04-12T00:16:47;97489.72;;;19.01;39.89
50057;BME280;36875;49.468;11.200;2023-04-12T00:19:13;97492.13;;;19.02;39.89
50057;BME280;36875;49.468;11.200;2023-04-12T00:21:41;97488.88;;;19.00;40.28
50057;BME280;36875;49.468;11.200;2023-04-12T00:24:08;97482.63;;;19.00;40.10
50057;BME280;36875;49.468;11.200;2023-04-12T00:26:33;97472.88;;;18.99;39.80
50057;BME280;36875;49.468;11.200;2023-04-12T00:28:59;97474.78;;;18.98;40.19
50057;BME280;36875;49.468;11.200;2023-04-12T00:31:25;97472.38;;;18.97;40.43
50057;BME280;36875;49.468;11.200;2023-04-12T00:33:51;97463.38;;;18.96;40.48
50057;BME280;36875;49.468;11.200;2023-04-12T00:36:16;97462.59;;;18.96;40.14
50057;BME280;36875;49.468;11.200;2023-04-12T00:38:42;97464.50;;;18.95;39.88
50057;BME280;36875;49.468;11.200;2023-04-12T00:41:11;97464.81;;;18.94;40.26
50057;BME280;36875;49.468;11.200;2023-04-12T00:43:39;97461.31;;;18.93;40.09
50057;BME280;36875;49.468;11.200;2023-04-12T00:46:05;97452.28;;;18.93;40.20
50057;BME280;36875;49.468;11.200;2023-04-12T00:48:30;97440.91;;;18.91;40.44
50057;BME280;36875;49.468;11.200;2023-04-12T00:50:56;97441.22;;;18.89;40.20
50057;BME280;36875;49.468;11.200;2023-04-12T00:53:22;97433.03;;;18.89;40.02
50057;BME280;36875;49.468;11.200;2023-04-12T00:55:49;97433.34;;;18.87;40.40
50057;BME280;36875;49.468;11.200;2023-04-12T00:58:16;97429.81;;;18.87;40.16
50057;BME280;36875;49.468;11.200;2023-04-12T01:00:42;97429.03;;;18.86;40.48
50057;BME280;36875;49.468;11.200;2023-04-12T01:03:14;97433.69;;;18.86;40.47
50057;BME280;36875;49.468;11.200;2023-04-12T01:05:45;97425.03;;;18.84;40.57
50057;BME280;36875;49.468;11.200;2023-04-12T01:08:18;97421.47;;;18.83;40.47
50057;BME280;36875;49.468;11.200;2023-04-12T01:10:53;97419.06;;;18.82;40.31
50057;BME280;36875;49.468;11.200;2023-04-12T01:13:27;97421.56;;;18.78;40.16
50057;BME280;36875;49.468;11.200;2023-04-12T01:16:03;97409.28;;;18.81;40.12
50057;BME280;36875;49.468;11.200;2023-04-12T01:18:36;97408.47;;;18.80;40.43
50057;BME280;36875;49.468;11.200;2023-04-12T01:21:07;97401.22;;;18.76;40.22
50057;BME280;36875;49.468;11.200;2023-04-12T01:23:47;97408.28;;;18.77;40.47
50057;BME280;36875;49.468;11.200;2023-04-12T01:26:29;97402.84;;;18.77;40.59
50057;BME280;36875;49.468;11.200;2023-04-12T01:28:58;97394.97;;;18.75;40.46
50057;BME280;36875;49.468;11.200;2023-04-12T01:31:26;97400.41;;;18.75;40.61
50057;BME280;36875;49.468;11.200;2023-04-12T01:33:53;97390.63;;;18.74;40.47
50057;BME280;36875;49.468;11.200;2023-04-12T01:36:21;97387.91;;;18.74;40.61
50057;BME280;36875;49.468;11.200;2023-04-12T01:38:47;97379.22;;;18.72;40.54
50057;BME280;36875;49.468;11.200;2023-04-12T01:41:14;97374.41;;;18.69;40.39
50057;BME280;36875;49.468;11.200;2023-04-12T01:43:40;97379.53;;;18.71;40.59
50057;BME280;36875;49.468;11.200;2023-04-12T01:46:08;97372.50;;;18.69;40.78
50057;BME280;36875;49.468;11.200;2023-04-12T01:48:34;97369.59;;;18.66;40.40
50057;BME280;36875;49.468;11.200;2023-04-12T01:51:04;97376.34;;;18.68;40.44
50057;BME280;36875;49.468;11.200;2023-04-12T01:53:36;97381.78;;;18.68;40.38
50057;BME280;36875;49.468;11.200;2023-04-12T01:56:08;97375.84;;;18.66;40.27
50057;BME280;36875;49.468;11.200;2023-04-12T01:58:35;97373.13;;;18.66;40.27
50057;BME280;36875;49.468;11.200;2023-04-12T02:01:01;97375.06;;;18.66;40.22
50057;BME280;36875;49.468;11.200;2023-04-12T02:03:29;97371.50;;;18.65;40.74
50057;BME280;36875;49.468;11.200;2023-04-12T02:05:56;97359.00;;;18.64;40.68
50057;BME280;36875;49.468;11.200;2023-04-12T02:08:23;97359.31;;;18.63;40.34
50057;BME280;36875;49.468;11.200;2023-04-12T02:10:49;97357.72;;;18.62;40.50
50057;BME280;36875;49.468;11.200;2023-04-12T02:13:15;97360.75;;;18.60;40.18
50057;BME280;36875;49.468;11.200;2023-04-12T02:15:42;97355.31;;;18.60;40.33
50057;BME280;36875;49.468;11.200;2023-04-12T02:18:08;97354.50;;;18.60;40.30
50057;BME280;36875;49.468;11.200;2023-04-12T02:20:35;97341.22;;;18.58;40.22
50057;BME280;36875;49.468;11.200;2023-04-12T02:23:00;97333.81;;;18.59;40.52
50057;BME280;36875;49.468;11.200;2023-04-12T02:25:26;97341.22;;;18.58;40.56
50057;BME280;36875;49.468;11.200;2023-04-12T02:27:51;97322.25;;;18.53;40.43
50057;BME280;36875;49.468;11.200;2023-04-12T02:30:17;97321.13;;;18.54;40.20
50057;BME280;36875;49.468;11.200;2023-04-12T02:32:44;97324.34;;;18.56;40.31
50057;BME280;36875;49.468;11.200;2023-04-12T02:35:10;97312.97;;;18.54;40.44
50057;BME280;36875;49.468;11.200;2023-04-12T02:37:37;97312.47;;;18.52;40.46
50057;BME280;36875;49.468;11.200;2023-04-12T02:40:03;97311.38;;;18.53;40.49
50057;BME280;36875;49.468;11.200;2023-04-12T02:42:30;97294.19;;;18.53;40.15
50057;BME280;36875;49.468;11.200;2023-04-12T02:44:56;97299.66;;;18.53;40.45
50057;BME280;36875;49.468;11.200;2023-04-12T02:47:21;97307.81;;;18.53;40.18
50057;BME280;36875;49.468;11.200;2023-04-12T02:49:47;97296.44;;;18.50;40.33
50057;BME280;36875;49.468;11.200;2023-04-12T02:52:12;97295.63;;;18.50;40.34
50057;BME280;36875;49.468;11.200;2023-04-12T02:54:39;97296.25;;;18.47;40.30
50057;BME280;36875;49.468;11.200;2023-04-12T02:57:05;97291.31;;;18.49;40.32
50057;BME280;36875;49.468;11.200;2023-04-12T02:59:30;97293.22;;;18.48;40.38
50057;BME280;36875;49.468;11.200;2023-04-12T03:01:56;97285.38;;;18.47;40.55
50057;BME280;36875;49.468;11.200;2023-04-12T03:04:21;97285.72;;;18.45;40.56
50057;BME280;36875;49.468;11.200;2023-04-12T03:06:54;97287.59;;;18.45;40.09
50057;BME280;36875;49.468;11.200;2023-04-12T03:09:20;97288.25;;;18.42;39.96
50057;BME280;36875;49.468;11.200;2023-04-12T03:11:47;97286.81;;;18.44;40.00
50057;BME280;36875;49.468;11.200;2023-04-12T03:14:12;97281.38;;;18.44;40.28
50057;BME280;36875;49.468;11.200;2023-04-12T03:16:38;97273.50;;;18.43;40.08
50057;BME280;36875;49.468;11.200;2023-04-12T03:19:04;97271.91;;;18.42;39.94
50057;BME280;36875;49.468;11.200;2023-04-12T03:21:30;97277.38;;;18.42;40.30
50057;BME280;36875;49.468;11.200;2023-04-12T03:23:57;97281.19;;;18.41;40.29
50057;BME280;36875;49.468;11.200;2023-04-12T03:26:23;97271.44;;;18.40;40.24
50057;BME280;36875;49.468;11.200;2023-04-12T03:28:55;97270.59;;;18.39;40.40
50057;BME280;36875;49.468;11.200;2023-04-12T03:31:20;97265.97;;;18.40;40.21
50057;BME280;36875;49.468;11.200;2023-04-12T03:33:46;97267.09;;;18.39;40.01
50057;BME280;36875;49.468;11.200;2023-04-12T03:36:11;97260.00;;;18.38;39.88
50057;BME280;36875;49.468;11.200;2023-04-12T03:38:37;97255.72;;;18.37;40.14
50057;BME280;36875;49.468;11.200;2023-04-12T03:41:02;97254.56;;;18.38;40.00
50057;BME280;36875;49.468;11.200;2023-04-12T03:43:28;97255.72;;;18.37;40.40
50057;BME280;36875;49.468;11.200;2023-04-12T03:46:01;97252.97;;;18.37;40.17
50057;BME280;36875;49.468;11.200;2023-04-12T03:48:27;97249.78;;;18.35;40.01
50057;BME280;36875;49.468;11.200;2023-04-12T03:50:52;97252.50;;;18.35;40.09
50057;BME280;36875;49.468;11.200;2023-04-12T03:53:18;97250.88;;;18.34;39.91
50057;BME280;36875;49.468;11.200;2023-04-12T03:55:44;97246.56;;;18.33;40.28
50057;BME280;36875;49.468;11.200;2023-04-12T03:58:09;97254.75;;;18.33;39.92
50057;BME280;36875;49.468;11.200;2023-04-12T04:00:37;97237.56;;;18.32;39.96
50057;BME280;36875;49.468;11.200;2023-04-12T04:03:04;97239.50;;;18.32;39.91
50057;BME280;36875;49.468;11.200;2023-04-12T04:05:30;97237.41;;;18.28;40.00
50057;BME280;36875;49.468;11.200;2023-04-12T04:07:55;97240.59;;;18.30;40.19
50057;BME280;36875;49.468;11.200;2023-04-12T04:10:25;97233.56;;;18.29;39.95
50057;BME280;36875;49.468;11.200;2023-04-12T04:12:50;97236.28;;;18.29;39.91
50057;BME280;36875;49.468;11.200;2023-04-12T04:15:16;97229.22;;;18.28;40.10
50057;BME280;36875;49.468;11.200;2023-04-12T04:17:41;97221.41;;;18.27;39.94
50057;BME280;36875;49.468;11.200;2023-04-12T04:20:09;97218.69;;;18.27;40.24
50057;BME280;36875;49.468;11.200;2023-04-12T04:22:36;97222.19;;;18.27;39.70
50057;BME280;36875;49.468;11.200;2023-04-12T04:25:02;97216.25;;;18.25;39.64
50057;BME280;36875;49.468;11.200;2023-04-12T04:27:28;97215.13;;;18.26;39.64
50057;BME280;36875;49.468;11.200;2023-04-12T04:29:54;97217.06;;;18.26;40.03
50057;BME280;36875;49.468;11.200;2023-04-12T04:32:23;97213.53;;;18.25;39.68
50057;BME280;36875;49.468;11.200;2023-04-12T04:34:49;97203.56;;;18.21;39.75
50057;BME280;36875;49.468;11.200;2023-04-12T04:37:16;97205.38;;;18.25;39.78
50057;BME280;36875;49.468;11.200;2023-04-12T04:39:43;97208.72;;;18.22;39.88
50057;BME280;36875;49.468;11.200;2023-04-12T04:42:08;97206.78;;;18.23;39.92
50057;BME280;36875;49.468;11.200;2023-04-12T04:44:34;97195.91;;;18.23;40.02
50057;BME280;36875;49.468;11.200;2023-04-12T04:47:00;97196.19;;;18.21;39.80
50057;BME280;36875;49.468;11.200;2023-04-12T04:49:25;97187.25;;;18.21;40.02
50057;BME280;36875;49.468;11.200;2023-04-12T04:51:51;97191.09;;;18.20;39.87
50057;BME280;36875;49.468;11.200;2023-04-12T04:54:18;97199.28;;;18.20;39.55
50057;BME280;36875;49.468;11.200;2023-04-12T04:56:43;97203.88;;;18.19;39.56
50057;BME280;36875;49.468;11.200;2023-04-12T04:59:08;97203.88;;;18.19;39.63
50057;BME280;36875;49.468;11.200;2023-04-12T05:01:34;97203.09;;;18.19;39.77
50057;BME280;36875;49.468;11.200;2023-04-12T05:04:00;97205.03;;;18.18;39.72
50057;BME280;36875;49.468;11.200;2023-04-12T05:06:26;97195.25;;;18.17;39.91
50057;BME280;36875;49.468;11.200;2023-04-12T05:08:51;97200.69;;;18.17;39.74
50057;BME280;36875;49.468;11.200;2023-04-12T05:11:18;97190.94;;;18.16;39.61
50057;BME280;36875;49.468;11.200;2023-04-12T05:13:44;97185.31;;;18.13;39.50
50057;BME280;36875;49.468;11.200;2023-04-12T05:16:10;97192.03;;;18.15;39.90
50057;BME280;36875;49.468;11.200;2023-04-12T05:18:36;97186.59;;;18.15;39.57
50057;BME280;36875;49.468;11.200;2023-04-12T05:21:01;97183.88;;;18.15;39.65
50057;BME280;36875;49.468;11.200;2023-04-12T05:23:28;97172.19;;;18.15;39.69
50057;BME280;36875;49.468;11.200;2023-04-12T05:25:53;97174.09;;;18.14;39.82
50057;BME280;36875;49.468;11.200;2023-04-12T05:28:20;97167.03;;;18.13;39.56
50057;BME280;36875;49.468;11.200;2023-04-12T05:30:46;97166.25;;;18.13;39.74
50057;BME280;36875;49.468;11.200;2023-04-12T05:33:11;97154.72;;;18.07;39.92
50057;BME280;36875;49.468;11.200;2023-04-12T05:35:37;97153.56;;;18.08;39.84
50057;BME280;36875;49.468;11.200;2023-04-12T05:38:02;97156.78;;;18.10;40.03
50057;BME280;36875;49.468;11.200;2023-04-12T05:40:28;97143.34;;;18.05;39.65
50057;BME280;36875;49.468;11.200;2023-04-12T05:42:55;97144.13;;;18.05;39.76
50057;BME280;36875;49.468;11.200;2023-04-12T05:45:22;97139.78;;;18.04;39.54
50057;BME280;36875;49.468;11.200;2023-04-12T05:47:48;97150.53;;;18.09;39.60
50057;BME280;36875;49.468;11.200;2023-04-12T05:50:13;97141.56;;;18.09;39.71
50057;BME280;36875;49.468;11.200;2023-04-12T05:52:39;97143.47;;;18.08;39.86
50057;BME280;36875;49.468;11.200;2023-04-12T05:55:05;97148.13;;;18.08;39.98
50057;BME280;36875;49.468;11.200;2023-04-12T05:57:30;97136.44;;;18.07;39.93
50057;BME280;36875;49.468;11.200;2023-04-12T05:59:56;97142.69;;;18.08;39.54
50057;BME280;36875;49.468;11.200;2023-04-12T06:02:23;97144.59;;;18.07;39.65
50057;BME280;36875;49.468;11.200;2023-04-12T06:04:50;97146.19;;;18.08;39.89
50057;BME280;36875;49.468;11.200;2023-04-12T06:07:16;97145.41;;;18.08;39.65
50057;BME280;36875;49.468;11.200;2023-04-12T06:09:43;97143.47;;;18.08;40.01
50057;BME280;36875;49.468;11.200;2023-04-12T06:12:08;97133.41;;;18.09;39.92
50057;BME280;36875;49.468;11.200;2023-04-12T06:14:34;97126.34;;;18.08;40.12
50057;BME280;36875;49.468;11.200;2023-04-12T06:17:00;97123.31;;;18.09;39.84
50057;BME280;36875;49.468;11.200;2023-04-12T06:19:27;97123.63;;;18.08;40.17
50057;BME280;36875;49.468;11.200;2023-04-12T06:21:53;97117.88;;;18.09;40.04
50057;BME280;36875;49.468;11.200;2023-04-12T06:24:18;97124.94;;;18.10;40.00
50057;BME280;36875;49.468;11.200;2023-04-12T06:26:44;97117.25;;;18.13;39.99
50057;BME280;36875;49.468;11.200;2023-04-12T06:29:11;97103.47;;;18.09;40.24
50057;BME280;36875;49.468;11.200;2023-04-12T06:31:37;97118.50;;;18.15;40.21
50057;BME280;36875;49.468;11.200;2023-04-12T06:34:03;97111.13;;;18.16;40.39
50057;BME280;36875;49.468;11.200;2023-04-12T06:36:32;97114.19;;;18.14;40.57
50057;BME280;36875;49.468;11.200;2023-04-12T06:38:57;97119.00;;;18.17;40.67
50057;BME280;36875;49.468;11.200;2023-04-12T06:41:24;97105.84;;;18.19;40.63
50057;BME280;36875;49.468;11.200;2023-04-12T06:43:49;97102.03;;;18.20;40.48
50057;BME280;36875;49.468;11.200;2023-04-12T06:46:15;97105.84;;;18.19;41.11
50057;BME280;36875;49.468;11.200;2023-04-12T06:48:42;97096.44;;;18.25;40.77
50057;BME280;36875;49.468;11.200;2023-04-12T06:51:09;97092.25;;;18.28;41.16
50057;BME280;36875;49.468;11.200;2023-04-12T06:53:36;97078.94;;;18.26;40.74
50057;BME280;36875;49.468;11.200;2023-04-12T06:56:03;97095.00;;;18.37;40.91
50057;BME280;36875;49.468;11.200;2023-04-12T06:58:29;97085.53;;;18.43;41.01
50057;BME280;36875;49.468;11.200;2023-04-12T07:01:03;97081.03;;;18.56;41.05
50057;BME280;36875;49.468;11.200;2023-04-12T07:03:28;97067.41;;;18.64;40.83
50057;BME280;36875;49.468;11.200;2023-04-12T07:05:57;97066.94;;;18.71;41.12
50057;BME280;36875;49.468;11.200;2023-04-12T07:08:24;97060.38;;;18.81;41.41
50057;BME280;36875;49.468;11.200;2023-04-12T07:10:53;97056.81;;;18.80;41.26
50057;BME280;36875;49.468;11.200;2023-04-12T07:13:19;97057.47;;;18.86;41.69
50057;BME280;36875;49.468;11.200;2023-04-12T07:15:44;97060.19;;;18.86;42.00
50057;BME280;36875;49.468;11.200;2023-04-12T07:18:10;97050.72;;;18.92;41.93
50057;BME280;36875;49.468;11.200;2023-04-12T07:20:36;97053.75;;;18.99;42.19
50057;BME280;36875;49.468;11.200;2023-04-12T07:23:01;97051.50;;;19.01;42.34
50057;BME280;36875;49.468;11.200;2023-04-12T07:25:27;97044.25;;;19.05;41.84
50057;BME280;36875;49.468;11.200;2023-04-12T07:27:54;97044.41;;;19.09;42.09
50057;BME280;36875;49.468;11.200;2023-04-12T07:30:20;97040.84;;;19.17;41.89
50057;BME280;36875;49.468;11.200;2023-04-12T07:32:45;97036.84;;;19.15;41.96
50057;BME280;36875;49.468;11.200;2023-04-12T07:35:11;97018.59;;;19.06;42.01
50057;BME280;36875;49.468;11.200;2023-04-12T07:37:36;97030.59;;;19.14;42.39
50057;BME280;36875;49.468;11.200;2023-04-12T07:40:02;97026.78;;;19.06;42.17
50057;BME280;36875;49.468;11.200;2023-04-12T07:42:28;97014.63;;;18.95;42.47
50057;BME280;36875;49.468;11.200;2023-04-12T07:44:55;97023.28;;;18.97;42.76
50057;BME280;36875;49.468;11.200;2023-04-12T07:47:20;97018.78;;;18.93;42.60
50057;BME280;36875;49.468;11.200;2023-04-12T07:49:46;97021.66;;;18.96;42.24
50057;BME280;36875;49.468;11.200;2023-04-12T07:52:11;97016.59;;;18.86;42.48
50057;BME280;36875;49.468;11.200;2023-04-12T07:54:37;97013.06;;;18.77;42.24
50057;BME280;36875;49.468;11.200;2023-04-12T07:57:02;97014.16;;;18.76;42.14
50057;BME280;36875;49.468;11.200;2023-04-12T07:59:28;97006.47;;;18.69;42.56
50057;BME280;36875;49.468;11.200;2023-04-12T08:01:55;97006.81;;;18.67;42.19
50057;BME280;36875;49.468;11.200;2023-04-12T08:04:21;96997.50;;;18.68;42.68
50057;BME280;36875;49.468;11.200;2023-04-12T08:06:47;97002.31;;;18.72;42.11
50057;BME280;36875;49.468;11.200;2023-04-12T08:09:12;96989.97;;;18.65;42.32
50057;BME280;36875;49.468;11.200;2023-04-12T08:11:38;96986.75;;;18.72;42.07
50057;BME280;36875;49.468;11.200;2023-04-12T08:14:04;96981.31;;;18.72;42.16
50057;BME280;36875;49.468;11.200;2023-04-12T08:16:29;96969.28;;;18.82;41.96
50057;BME280;36875;49.468;11.200;2023-04-12T08:18:58;96976.81;;;18.85;42.30
50057;BME280;36875;49.468;11.200;2023-04-12T08:21:23;96971.03;;;18.78;42.51
50057;BME280;36875;49.468;11.200;2023-04-12T08:23:49;96968.31;;;18.78;42.54
50057;BME280;36875;49.468;11.200;2023-04-12T08:26:15;96955.63;;;18.91;42.30
50057;BME280;36875;49.468;11.200;2023-04-12T08:28:40;96963.94;;;18.94;41.80
50057;BME280;36875;49.468;11.200;2023-04-12T08:31:07;96954.66;;;18.95;42.36
50057;BME280;36875;49.468;11.200;2023-04-12T08:33:32;96964.59;;;18.91;42.10
50057;BME280;36875;49.468;11.200;2023-04-12T08:35:59;96949.41;;;18.81;42.16
50057;BME280;36875;49.468;11.200;2023-04-12T08:38:25;96961.41;;;18.80;42.21
50057;BME280;36875;49.468;11.200;2023-04-12T08:40:51;96941.22;;;18.73;42.51
50057;BME280;36875;49.468;11.200;2023-04-12T08:43:17;96941.50;;;18.80;42.29
50057;BME280;36875;49.468;11.200;2023-04-12T08:45:43;96954.06;;;18.81;42.12
50057;BME280;36875;49.468;11.200;2023-04-12T08:48:09;96945.06;;;18.80;42.25
50057;BME280;36875;49.468;11.200;2023-04-12T08:50:35;96943.94;;;18.81;42.41
50057;BME280;36875;49.468;11.200;2023-04-12T08:53:02;96943.16;;;18.81;42.03
50057;BME280;36875;49.468;11.200;2023-04-12T08:55:28;96937.69;;;18.81;42.38
50057;BME280;36875;49.468;11.200;2023-04-12T08:57:54;96929.53;;;18.81;42.01
50057;BME280;36875;49.468;11.200;2023-04-12T09:00:26;96922.44;;;18.80;42.16
50057;BME280;36875;49.468;11.200;2023-04-12T09:02:51;96919.41;;;18.81;42.16
50057;BME280;36875;49.468;11.200;2023-04-12T09:05:17;96927.28;;;18.83;41.86
50057;BME280;36875;49.468;11.200;2023-04-12T09:07:43;96915.56;;;18.82;42.25
50057;BME280;36875;49.468;11.200;2023-04-12T09:10:09;96911.72;;;18.83;42.21
50057;BME280;36875;49.468;11.200;2023-04-12T09:12:44;96904.66;;;18.82;41.98
50057;BME280;36875;49.468;11.200;2023-04-12T09:15:11;96902.88;;;18.78;42.02
50057;BME280;36875;49.468;11.200;2023-04-12T09:17:38;96900.34;;;18.81;42.21
50057;BME280;36875;49.468;11.200;2023-04-12T09:20:22;96893.59;;;18.79;41.82
50057;BME280;36875;49.468;11.200;2023-04-12T09:22:51;96887.19;;;18.75;41.99
50057;BME280;36875;49.468;11.200;2023-04-12T09:25:34;96891.19;;;18.77;41.76
50057;BME280;36875;49.468;11.200;2023-04-12T09:28:00;96879.16;;;18.78;41.88
50057;BME280;36875;49.468;11.200;2023-04-12T09:30:25;96870.97;;;18.78;42.02
50057;BME280;36875;49.468;11.200;2023-04-12T09:32:51;96867.31;;;18.83;42.30
50057;BME280;36875;49.468;11.200;2023-04-12T09:35:32;96854.25;;;18.97;41.95
50057;BME280;36875;49.468;11.200;2023-04-12T09:38:06;96856.34;;;18.92;42.35
50057;BME280;36875;49.468;11.200;2023-04-12T09:40:32;96845.97;;;18.76;42.46
50057;BME280;36875;49.468;11.200;2023-04-12T09:43:00;96845.03;;;18.72;42.20
50057;BME280;36875;49.468;11.200;2023-04-12T09:45:26;96838.31;;;18.69;42.77
50057;BME280;36875;49.468;11.200;2023-04-12T09:47:53;96843.09;;;18.73;42.42
50057;BME280;36875;49.468;11.200;2023-04-12T09:50:20;96836.06;;;18.72;42.34
50057;BME280;36875;49.468;11.200;2023-04-12T09:52:47;96836.16;;;19.35;42.11
50057;BME280;36875;49.468;11.200;2023-04-12T09:55:12;96821.38;;;19.57;41.97
50057;BME280;36875;49.468;11.200;2023-04-12T09:57:40;96816.00;;;19.48;42.19
50057;BME280;36875;49.468;11.200;2023-04-12T10:00:07;96820.66;;;19.48;42.01
50057;BME280;36875;49.468;11.200;2023-04-12T10:02:45;96821.06;;;19.16;42.54
50057;BME280;36875;49.468;11.200;2023-04-12T10:05:12;96807.94;;;19.10;43.60
50057;BME280;36875;49.468;11.200;2023-04-12T10:07:39;96800.63;;;19.01;44.24
50057;BME280;36875;49.468;11.200;2023-04-12T10:10:08;96808.53;;;18.94;44.58
50057;BME280;36875;49.468;11.200;2023-04-12T10:12:37;96798.66;;;18.90;44.71
50057;BME280;36875;49.468;11.200;2023-04-12T10:15:05;96799.63;;;18.85;45.11
50057;BME280;36875;49.468;11.200;2023-04-12T10:17:31;96791.31;;;18.81;44.63
50057;BME280;36875;49.468;11.200;2023-04-12T10:19:59;96786.84;;;18.77;44.38
50057;BME280;36875;49.468;11.200;2023-04-12T10:22:25;96782.16;;;18.77;44.38
50057;BME280;36875;49.468;11.200;2023-04-12T10:24:51;96780.69;;;18.80;44.66
50057;BME280;36875;49.468;11.200;2023-04-12T10:27:23;96777.97;;;18.80;44.56
50057;BME280;36875;49.468;11.200;2023-04-12T10:29:49;96777.69;;;18.81;44.40
50057;BME280;36875;49.468;11.200;2023-04-12T10:32:20;96764.97;;;18.85;44.20
50057;BME280;36875;49.468;11.200;2023-04-12T10:34:49;96758.72;;;18.85;44.75
50057;BME280;36875;49.468;11.200;2023-04-12T10:37:16;96768.31;;;18.91;43.81
50057;BME280;36875;49.468;11.200;2023-04-12T10:39:42;96750.84;;;18.92;44.28
50057;BME280;36875;49.468;11.200;2023-04-12T10:42:19;96754.22;;;18.89;43.63
50057;BME280;36875;49.468;11.200;2023-04-12T10:44:50;96747.00;;;18.93;43.68
50057;BME280;36875;49.468;11.200;2023-04-12T10:50:31;96746.09;;;19.01;43.48
50057;BME280;36875;49.468;11.200;2023-04-12T10:53:20;96737.13;;;19.01;43.50
50057;BME280;36875;49.468;11.200;2023-04-12T10:55:46;96726.88;;;18.98;43.41
50057;BME280;36875;49.468;11.200;2023-04-12T11:01:19;96717.91;;;18.97;43.72
50057;BME280;36875;49.468;11.200;2023-04-12T11:04:09;96713.44;;;18.93;43.80
50057;BME280;36875;49.468;11.200;2023-04-12T11:09:22;96711.19;;;18.95;43.27
50057;BME280;36875;49.468;11.200;2023-04-12T11:11:48;96699.16;;;18.96;43.42
50057;BME280;36875;49.468;11.200;2023-04-12T11:14:14;96709.75;;;18.97;43.07
50057;BME280;36875;49.468;11.200;2023-04-12T11:17:19;96693.38;;;18.97;43.14
50057;BME280;36875;49.468;11.200;2023-04-12T11:19:47;96695.66;;;18.95;43.13
50057;BME280;36875;49.468;11.200;2023-04-12T11:22:14;96707.34;;;18.96;43.02
50057;BME280;36875;49.468;11.200;2023-04-12T11:24:43;96714.75;;;18.95;43.17
50057;BME280;36875;49.468;11.200;2023-04-12T11:27:09;96714.75;;;18.95;42.96
50057;BME280;36875;49.468;11.200;2023-04-12T11:29:35;96710.72;;;18.93;42.98
50057;BME280;36875;49.468;11.200;2023-04-12T11:32:02;96704.94;;;18.94;43.46
50057;BME280;36875;49.468;11.200;2023-04-12T11:34:32;96720.84;;;18.92;43.42
50057;BME280;36875;49.468;11.200;2023-04-12T11:36:58;96710.91;;;18.87;43.18
50057;BME280;36875;49.468;11.200;2023-04-12T11:39:25;96720.06;;;18.92;43.28
50057;BME280;36875;49.468;11.200;2023-04-12T11:41:51;96716.50;;;18.91;43.40
50057;BME280;36875;49.468;11.200;2023-04-12T11:44:17;96706.41;;;18.92;43.12
50057;BME280;36875;49.468;11.200;2023-04-12T11:46:43;96684.47;;;18.88;43.09
50057;BME280;36875;49.468;11.200;2023-04-12T11:49:09;96689.75;;;18.93;43.21
50057;BME280;36875;49.468;11.200;2023-04-12T11:51:36;96696.84;;;19.06;42.86
50057;BME280;36875;49.468;11.200;2023-04-12T11:54:01;96677.25;;;19.25;42.61
50057;BME280;36875;49.468;11.200;2023-04-12T11:56:28;96682.41;;;19.39;42.42
50057;BME280;36875;49.468;11.200;2023-04-12T11:58:55;96682.41;;;19.39;42.71
50057;BME280;36875;49.468;11.200;2023-04-12T12:01:21;96671.38;;;19.36;42.29
50057;BME280;36875;49.468;11.200;2023-04-12T12:03:48;96661.03;;;19.41;42.43
50057;BME280;36875;49.468;11.200;2023-04-12T12:06:14;96658.19;;;19.38;42.65
50057;BME280;36875;49.468;11.200;2023-04-12T12:08:41;96657.16;;;19.42;42.48
50057;BME280;36875;49.468;11.200;2023-04-12T12:11:07;96655.63;;;19.54;42.02
50057;BME280;36875;49.468;11.200;2023-04-12T12:13:43;96649.91;;;19.59;42.10
50057;BME280;36875;49.468;11.200;2023-04-12T12:16:09;96656.06;;;19.68;41.85
50057;BME280;36875;49.468;11.200;2023-04-12T12:18:38;96651.22;;;19.74;41.96
50057;BME280;36875;49.468;11.200;2023-04-12T12:21:07;96650.88;;;19.75;41.72
50057;BME280;36875;49.468;11.200;2023-04-12T12:23:33;96647.25;;;19.83;41.95
50057;BME280;36875;49.468;11.200;2023-04-12T12:26:01;96639.66;;;19.89;41.63
50057;BME280;36875;49.468;11.200;2023-04-12T12:28:35;96647.13;;;19.92;41.70
50057;BME280;36875;49.468;11.200;2023-04-12T12:31:04;96637.94;;;19.97;41.75
50057;BME280;36875;49.468;11.200;2023-04-12T12:33:35;96634.97;;;19.77;42.11
50057;BME280;36875;49.468;11.200;2023-04-12T12:36:02;96632.38;;;19.35;43.24
50057;BME280;36875;49.468;11.200;2023-04-12T12:38:33;96627.41;;;19.37;43.36
50057;BME280;36875;49.468;11.200;2023-04-12T12:41:14;96613.88;;;19.53;42.76
50057;BME280;36875;49.468;11.200;2023-04-12T12:43:43;96612.97;;;19.61;42.95
50057;BME280;36875;49.468;11.200;2023-04-12T12:46:09;96604.22;;;19.56;43.32
50057;BME280;36875;49.468;11.200;2023-04-12T12:48:38;96593.88;;;19.49;43.07
50057;BME280;36875;49.468;11.200;2023-04-12T12:51:03;96592.50;;;19.43;43.11
50057;BME280;36875;49.468;11.200;2023-04-12T12:53:29;96596.56;;;19.37;43.29
50057;BME280;36875;49.468;11.200;2023-04-12T12:55:54;96582.81;;;19.33;43.25
50057;BME280;36875;49.468;11.200;2023-04-12T12:58:21;96577.03;;;19.35;43.45
50057;BME280;36875;49.468;11.200;2023-04-12T13:00:47;96579.75;;;19.35;43.19